Time;durP1;ratioP1;P1;durP2;ratioP2;P2;SDS_P1;SDS_P2;PMS_P1;PMS_P2;Temp;Humidity;BMP_temperature;BMP_pressure;BME280_temperature;BME280_humidity;BME280_pressure;Samples;Min_cycle;Max_cycle;Signal;HPM_P1;HPM_P2
2022/04/03 00:02:03;;;;;;;6.60;3.33;;;-0.70;99.90;;;;;;5030114;28;20065;-53
2022/04/03 00:04:37;;;;;;;7.22;3.30;;;-0.80;99.90;;;;;;5028527;28;20113;-53
2022/04/03 00:07:08;;;;;;;5.60;3.28;;;-0.80;99.90;;;;;;5024316;28;20489;-56
2022/04/03 00:09:34;;;;;;;5.38;3.17;;;-0.80;99.90;;;;;;5030425;28;20048;-55
2022/04/03 00:12:00;;;;;;;5.07;3.08;;;-0.80;99.90;;;;;;5029484;28;20050;-56
2022/04/03 00:14:26;;;;;;;7.00;3.28;;;-0.80;99.90;;;;;;5026837;28;20049;-53
2022/04/03 00:16:55;;;;;;;3.83;2.22;;;-0.80;99.90;;;;;;5023454;28;20034;-53
2022/04/03 00:19:33;;;;;;;6.15;2.65;;;-0.90;99.90;;;;;;5020349;28;20038;-54
2022/04/03 00:22:01;;;;;;;6.32;2.70;;;-0.90;99.90;;;;;;5007302;28;20033;-53
2022/04/03 00:24:32;;;;;;;7.35;2.63;;;-1.00;99.90;;;;;;5027056;28;20033;-55
2022/04/03 00:27:01;;;;;;;5.32;2.50;;;-1.00;99.90;;;;;;5008473;28;20095;-54
2022/04/03 00:29:30;;;;;;;6.00;2.90;;;-1.00;99.90;;;;;;5021476;28;20109;-53
2022/04/03 00:31:56;;;;;;;7.15;2.40;;;-1.00;99.90;;;;;;5033080;28;20033;-53
2022/04/03 00:34:25;;;;;;;5.43;2.65;;;-1.00;99.90;;;;;;5034669;28;20076;-54
2022/04/03 00:36:54;;;;;;;6.93;2.72;;;-1.00;99.90;;;;;;5033912;28;20119;-55
2022/04/03 00:39:23;;;;;;;4.72;2.65;;;-1.00;99.90;;;;;;5034317;28;20393;-54
2022/04/03 00:41:52;;;;;;;6.07;2.88;;;-1.00;99.90;;;;;;5028628;28;20038;-53
2022/04/03 00:44:18;;;;;;;4.38;2.47;;;-1.00;99.90;;;;;;5024003;28;20041;-53
2022/04/03 00:46:47;;;;;;;8.48;2.90;;;-1.00;99.90;;;;;;5033905;28;20037;-53
2022/04/03 00:49:13;;;;;;;6.65;2.80;;;-0.90;99.90;;;;;;5033892;28;20049;-54
2022/04/03 00:51:39;;;;;;;5.80;2.63;;;-0.90;99.90;;;;;;5034288;28;20042;-55
2022/04/03 00:54:07;;;;;;;5.30;2.80;;;-0.90;99.90;;;;;;5034230;28;20127;-56
2022/04/03 00:56:34;;;;;;;9.63;3.30;;;-0.90;99.90;;;;;;5033638;28;20100;-56
2022/04/03 00:59:00;;;;;;;8.68;3.60;;;-0.90;99.90;;;;;;5033895;28;20042;-56
2022/04/03 01:01:26;;;;;;;6.15;2.72;;;-0.90;99.90;;;;;;5034047;28;20091;-56
2022/04/03 01:03:51;;;;;;;6.00;2.97;;;-0.90;99.90;;;;;;5033849;28;20116;-56
2022/04/03 01:06:22;;;;;;;4.85;3.15;;;-1.00;99.90;;;;;;5033275;28;20129;-56
2022/04/03 01:08:50;;;;;;;6.40;3.08;;;-1.00;99.90;;;;;;5033803;28;20099;-56
2022/04/03 01:11:21;;;;;;;7.30;3.50;;;-0.90;99.90;;;;;;5015940;28;20124;-55
2022/04/03 01:13:49;;;;;;;6.80;3.38;;;-0.90;99.90;;;;;;5027105;28;20674;-56
2022/04/03 01:16:18;;;;;;;6.80;3.47;;;-0.90;99.90;;;;;;5033237;28;20103;-56
2022/04/03 01:18:44;;;;;;;4.82;3.00;;;-0.90;99.90;;;;;;5033515;28;20091;-55
2022/04/03 01:21:13;;;;;;;7.68;3.60;;;-0.90;99.90;;;;;;5032723;28;20037;-55
2022/04/03 01:23:39;;;;;;;5.82;3.05;;;-1.00;99.90;;;;;;5033479;28;20037;-56
2022/04/03 01:26:05;;;;;;;6.25;3.47;;;-1.00;99.90;;;;;;5032659;28;20049;-56
2022/04/03 01:28:31;;;;;;;7.82;3.58;;;-1.00;99.90;;;;;;5032300;28;20053;-55
2022/04/03 01:30:59;;;;;;;6.82;3.92;;;-1.00;99.90;;;;;;5033599;28;20044;-55
2022/04/03 01:33:27;;;;;;;11.82;4.00;;;-1.00;99.90;;;;;;5032982;28;20071;-55
2022/04/03 01:35:56;;;;;;;7.88;3.80;;;-1.00;99.90;;;;;;5012686;28;20060;-56
2022/04/03 01:38:22;;;;;;;7.88;3.72;;;-0.90;99.90;;;;;;5033414;28;20044;-53
2022/04/03 01:40:48;;;;;;;8.45;4.05;;;-1.00;99.90;;;;;;5032357;28;20034;-55
2022/04/03 01:43:16;;;;;;;6.55;3.60;;;-0.90;99.90;;;;;;5027199;28;20041;-56
2022/04/03 01:45:42;;;;;;;7.93;4.40;;;-0.90;99.90;;;;;;5032830;28;20033;-56
2022/04/03 01:48:09;;;;;;;7.90;3.97;;;-0.90;99.90;;;;;;5032357;28;20033;-56
2022/04/03 01:50:35;;;;;;;8.05;4.15;;;-0.80;99.90;;;;;;5032607;28;20045;-56
2022/04/03 01:53:01;;;;;;;8.60;3.92;;;-0.80;99.90;;;;;;5032798;28;20116;-56
2022/04/03 01:55:27;;;;;;;8.00;4.13;;;-0.80;99.90;;;;;;5032920;28;20060;-55
2022/04/03 01:57:53;;;;;;;7.45;3.85;;;-0.80;99.90;;;;;;5014933;28;20045;-54
2022/04/03 02:00:20;;;;;;;10.60;4.28;;;-0.70;99.90;;;;;;5032745;28;20033;-54
2022/04/03 02:02:46;;;;;;;11.88;4.40;;;-0.70;99.90;;;;;;5032522;28;20033;-56
2022/04/03 02:05:11;;;;;;;7.70;4.20;;;-0.70;99.90;;;;;;5031884;28;20045;-56
2022/04/03 02:07:38;;;;;;;9.48;4.50;;;-0.70;99.90;;;;;;5032948;28;20120;-55
2022/04/03 02:10:12;;;;;;;6.60;4.05;;;-0.70;99.90;;;;;;5030349;28;20052;-55
2022/04/03 02:12:41;;;;;;;8.50;3.92;;;-0.60;99.90;;;;;;5017808;28;20046;-55
2022/04/03 02:15:08;;;;;;;12.27;4.70;;;-0.60;99.90;;;;;;5031317;28;20042;-55
2022/04/03 02:17:34;;;;;;;9.38;4.30;;;-0.50;99.90;;;;;;5032031;28;20045;-56
2022/04/03 02:20:04;;;;;;;7.63;3.78;;;-0.50;99.90;;;;;;5032189;28;20040;-55
2022/04/03 02:22:29;;;;;;;8.35;4.43;;;-0.50;99.90;;;;;;5032028;28;20037;-55
2022/04/03 02:24:55;;;;;;;8.18;4.35;;;-0.50;99.90;;;;;;5032369;28;20125;-53
2022/04/03 02:27:24;;;;;;;8.68;4.43;;;-0.50;99.90;;;;;;5032398;28;20091;-55
2022/04/03 02:29:50;;;;;;;8.32;4.10;;;-0.50;99.90;;;;;;5025523;28;20073;-56
2022/04/03 02:32:16;;;;;;;9.50;4.90;;;-0.40;99.90;;;;;;5022842;28;20081;-55
2022/04/03 02:34:45;;;;;;;8.98;4.30;;;-0.40;99.90;;;;;;5031707;28;20045;-55
2022/04/03 02:37:14;;;;;;;9.07;4.30;;;-0.40;99.90;;;;;;5032033;28;20045;-56
2022/04/03 02:39:41;;;;;;;9.30;5.07;;;-0.30;99.90;;;;;;5031562;28;20037;-54
2022/04/03 02:42:08;;;;;;;9.85;4.55;;;-0.30;99.90;;;;;;5023499;28;20037;-56
2022/04/03 02:44:34;;;;;;;8.05;4.38;;;-0.20;99.90;;;;;;5031933;28;20045;-55
2022/04/03 02:47:01;;;;;;;8.98;4.35;;;-0.20;99.90;;;;;;5031339;28;20124;-57
2022/04/03 02:49:29;;;;;;;10.65;4.50;;;-0.20;99.90;;;;;;5027113;28;20095;-54
2022/04/03 02:52:00;;;;;;;8.18;5.25;;;-0.10;99.90;;;;;;5031027;28;20128;-53
2022/04/03 02:54:26;;;;;;;6.35;4.50;;;-0.10;99.90;;;;;;5031698;28;20052;-55
2022/04/03 02:56:56;;;;;;;10.15;5.35;;;-0.10;99.90;;;;;;5031442;28;20293;-56
2022/04/03 02:59:27;;;;;;;9.55;5.22;;;-0.10;99.90;;;;;;5031352;28;20034;-57
2022/04/03 03:01:58;;;;;;;8.93;5.40;;;-0.10;99.90;;;;;;5031783;28;20041;-54
2022/04/03 03:04:27;;;;;;;10.60;5.25;;;-0.10;99.90;;;;;;5031574;28;20033;-56
2022/04/03 03:06:56;;;;;;;9.43;5.43;;;-0.10;99.90;;;;;;5031378;28;20192;-55
2022/04/03 03:09:22;;;;;;;10.02;5.25;;;-0.10;99.90;;;;;;5031341;28;20043;-54
2022/04/03 03:11:50;;;;;;;8.85;5.35;;;-0.10;99.90;;;;;;5030735;28;20079;-55
2022/04/03 03:14:19;;;;;;;10.02;5.20;;;-0.10;99.90;;;;;;5029510;28;20033;-56
2022/04/03 03:16:45;;;;;;;11.50;5.45;;;0.00;99.90;;;;;;5030562;28;20050;-56
2022/04/03 03:19:11;;;;;;;8.57;4.90;;;0.00;99.90;;;;;;5031206;28;20025;-56
2022/04/03 03:21:39;;;;;;;8.40;4.78;;;-0.10;99.90;;;;;;5031071;28;20045;-57
2022/04/03 03:24:06;;;;;;;9.88;5.15;;;0.00;99.90;;;;;;5031102;28;20030;-56
2022/04/03 03:26:32;;;;;;;8.65;4.72;;;0.00;99.90;;;;;;5031300;28;20040;-56
2022/04/03 03:28:58;;;;;;;8.35;4.97;;;0.00;99.90;;;;;;5031099;28;20041;-57
2022/04/03 03:31:24;;;;;;;9.90;4.80;;;0.00;99.90;;;;;;5031239;28;20049;-56
2022/04/03 03:33:50;;;;;;;8.85;5.05;;;0.00;99.90;;;;;;5030757;28;20557;-53
2022/04/03 03:36:19;;;;;;;8.10;4.38;;;0.00;99.90;;;;;;5030904;28;20151;-53
2022/04/03 03:38:50;;;;;;;8.70;5.07;;;0.00;99.90;;;;;;5030608;28;20037;-56
2022/04/03 03:41:22;;;;;;;8.63;4.57;;;0.00;99.90;;;;;;5031151;28;20040;-55
2022/04/03 03:43:48;;;;;;;9.33;4.57;;;0.00;99.90;;;;;;5013169;28;20052;-55
2022/04/03 03:46:13;;;;;;;9.43;4.68;;;0.00;99.90;;;;;;5013012;28;20046;-55
2022/04/03 03:48:39;;;;;;;9.85;4.85;;;0.00;99.90;;;;;;5031105;28;20068;-54
2022/04/03 03:51:05;;;;;;;11.73;4.93;;;0.10;99.90;;;;;;5031294;28;20041;-57
2022/04/03 03:53:31;;;;;;;6.30;4.32;;;0.10;99.90;;;;;;5030891;28;20072;-56
2022/04/03 03:55:57;;;;;;;13.10;4.90;;;0.20;99.90;;;;;;5025506;28;20375;-54
2022/04/03 03:58:23;;;;;;;8.48;4.25;;;0.20;99.90;;;;;;5007507;28;20048;-55
2022/04/03 04:00:49;;;;;;;9.02;4.63;;;0.30;99.90;;;;;;5034837;28;20029;-56
2022/04/03 04:03:14;;;;;;;8.45;4.22;;;0.30;99.90;;;;;;5034297;28;20513;-56
2022/04/03 04:05:41;;;;;;;8.25;4.60;;;0.40;99.90;;;;;;5034848;28;20091;-55
2022/04/03 04:08:09;;;;;;;7.82;4.55;;;0.40;99.90;;;;;;5016905;28;20434;-55
2022/04/03 04:10:35;;;;;;;7.38;3.95;;;0.40;99.90;;;;;;5035142;28;20122;-55
2022/04/03 04:13:01;;;;;;;6.53;3.88;;;0.40;99.90;;;;;;5034747;28;20122;-55
2022/04/03 04:15:27;;;;;;;7.50;3.80;;;0.40;99.90;;;;;;5034380;28;20036;-55
2022/04/03 04:17:54;;;;;;;9.13;3.88;;;0.50;99.90;;;;;;5034594;28;20045;-57
2022/04/03 04:20:21;;;;;;;6.82;3.38;;;0.50;99.90;;;;;;5034387;28;20112;-57
2022/04/03 04:22:48;;;;;;;10.57;3.95;;;0.50;99.90;;;;;;5035173;28;20048;-56
2022/04/03 04:25:14;;;;;;;8.55;3.63;;;0.50;99.90;;;;;;5016396;28;20405;-56
2022/04/03 04:27:41;;;;;;;9.02;3.78;;;0.50;99.90;;;;;;5034655;28;20045;-55
2022/04/03 04:30:07;;;;;;;8.57;3.85;;;0.60;99.90;;;;;;5034451;28;20045;-57
2022/04/03 04:32:33;;;;;;;10.32;3.58;;;0.60;99.90;;;;;;5027307;28;20115;-56
2022/04/03 04:34:59;;;;;;;6.18;3.40;;;0.60;99.90;;;;;;5034067;28;20481;-56
2022/04/03 04:37:25;;;;;;;7.07;4.15;;;0.70;99.90;;;;;;5034359;28;20467;-56
2022/04/03 04:39:51;;;;;;;7.72;3.70;;;0.70;99.90;;;;;;5034656;28;20030;-56
2022/04/03 04:42:16;;;;;;;6.60;4.05;;;0.70;99.90;;;;;;5034486;28;20041;-55
2022/04/03 04:44:42;;;;;;;9.75;3.50;;;0.70;99.90;;;;;;5034112;28;20041;-57
2022/04/03 04:47:08;;;;;;;5.18;2.92;;;0.70;99.90;;;;;;5033566;28;20055;-56
2022/04/03 04:49:34;;;;;;;4.95;3.10;;;0.70;99.90;;;;;;5034061;28;20037;-55
2022/04/03 04:52:00;;;;;;;8.32;2.95;;;0.70;99.90;;;;;;5034253;28;20037;-57
2022/04/03 04:54:26;;;;;;;9.48;3.55;;;0.70;99.90;;;;;;5034261;28;20048;-56
2022/04/03 04:56:52;;;;;;;10.40;3.40;;;0.70;99.90;;;;;;5033439;28;20041;-58
2022/04/03 04:59:18;;;;;;;7.38;3.55;;;0.80;99.90;;;;;;5034115;28;20033;-57
2022/04/03 05:01:44;;;;;;;7.80;3.35;;;0.80;99.90;;;;;;5034218;28;20087;-56
2022/04/03 05:04:10;;;;;;;6.88;3.22;;;0.70;99.90;;;;;;5033804;28;20059;-57
2022/04/03 05:06:35;;;;;;;5.65;3.42;;;0.70;99.90;;;;;;5033474;28;20057;-55
2022/04/03 05:09:03;;;;;;;9.18;4.10;;;0.80;99.90;;;;;;5033779;28;20040;-56
2022/04/03 05:11:29;;;;;;;7.90;4.05;;;0.80;99.90;;;;;;5032729;28;20042;-56
2022/04/03 05:13:55;;;;;;;8.65;3.78;;;0.80;99.90;;;;;;5033759;28;20444;-56
2022/04/03 05:16:20;;;;;;;5.55;3.45;;;0.80;99.90;;;;;;5032142;28;20041;-57
2022/04/03 05:18:48;;;;;;;7.72;3.67;;;0.80;99.90;;;;;;5030549;28;20036;-57
2022/04/03 05:21:14;;;;;;;7.50;3.92;;;0.80;99.90;;;;;;5028753;28;20069;-58
2022/04/03 05:23:41;;;;;;;6.70;4.10;;;0.90;99.90;;;;;;5033315;28;20029;-58
2022/04/03 05:26:06;;;;;;;6.57;3.55;;;0.90;99.90;;;;;;5033153;28;20217;-56
2022/04/03 05:28:32;;;;;;;7.50;3.50;;;0.90;99.90;;;;;;5016063;28;20409;-55
2022/04/03 05:30:58;;;;;;;7.85;3.88;;;0.80;99.90;;;;;;5030314;28;20112;-57
2022/04/03 05:33:23;;;;;;;10.10;3.92;;;0.90;99.90;;;;;;5033931;28;20389;-56
2022/04/03 05:35:50;;;;;;;5.80;3.85;;;0.90;99.90;;;;;;5032969;28;20034;-57
2022/04/03 05:38:16;;;;;;;6.97;3.53;;;0.80;99.90;;;;;;5033010;28;20172;-55
2022/04/03 05:40:42;;;;;;;6.55;3.10;;;0.80;99.90;;;;;;5033013;28;20056;-55
2022/04/03 05:43:08;;;;;;;7.40;3.70;;;0.80;99.90;;;;;;5033219;28;20025;-57
2022/04/03 05:45:34;;;;;;;8.40;3.85;;;0.90;99.90;;;;;;5032916;28;20382;-56
2022/04/03 05:48:01;;;;;;;6.53;3.83;;;0.90;99.90;;;;;;5032523;28;20500;-57
2022/04/03 05:50:26;;;;;;;7.45;3.65;;;0.90;99.90;;;;;;5033197;28;20034;-57
2022/04/03 05:52:53;;;;;;;5.63;3.28;;;0.80;99.90;;;;;;5033015;28;20041;-56
2022/04/03 05:55:20;;;;;;;5.90;3.10;;;0.90;99.90;;;;;;5024826;28;20079;-56
2022/04/03 05:57:48;;;;;;;7.47;3.10;;;0.90;99.90;;;;;;5032591;28;20508;-56
2022/04/03 06:00:15;;;;;;;6.60;2.95;;;0.90;99.90;;;;;;5022150;28;20033;-56
2022/04/03 06:02:57;;;;;;;7.03;2.58;;;0.90;99.90;;;;;;5018613;28;20557;-56
2022/04/03 06:05:34;;;;;;;5.87;2.80;;;1.30;99.90;;;;;;5024097;28;20488;-55
2022/04/03 06:08:03;;;;;;;7.35;3.25;;;1.70;99.90;;;;;;5012166;28;20806;-55
2022/04/03 06:10:29;;;;;;;4.93;2.55;;;1.80;99.90;;;;;;5032350;28;20498;-55
2022/04/03 06:12:55;;;;;;;6.15;2.65;;;1.80;99.90;;;;;;5030127;28;20520;-55
2022/04/03 06:15:21;;;;;;;5.15;2.38;;;1.80;99.90;;;;;;5030847;28;20072;-56
2022/04/03 06:17:53;;;;;;;4.53;2.55;;;1.80;99.90;;;;;;5032295;28;20120;-57
2022/04/03 06:20:20;;;;;;;5.95;2.60;;;1.90;99.90;;;;;;5030583;28;20036;-57
2022/04/03 06:22:46;;;;;;;5.78;2.50;;;2.10;99.90;;;;;;5030814;28;20053;-57
2022/04/03 06:25:12;;;;;;;6.20;2.47;;;2.20;99.90;;;;;;5030498;28;20029;-57
2022/04/03 06:27:39;;;;;;;4.70;2.42;;;2.30;99.90;;;;;;5029338;28;20119;-56
2022/04/03 06:30:05;;;;;;;5.55;2.45;;;2.60;99.90;;;;;;5020539;28;20461;-58
2022/04/03 06:32:30;;;;;;;4.68;2.33;;;2.80;99.90;;;;;;5019886;28;20525;-57
2022/04/03 06:34:56;;;;;;;4.72;2.42;;;2.90;99.90;;;;;;5026740;28;20037;-56
2022/04/03 06:37:22;;;;;;;5.65;2.45;;;2.80;99.90;;;;;;5023990;28;20040;-58
2022/04/03 06:39:48;;;;;;;4.57;2.60;;;2.80;99.90;;;;;;5025874;28;20038;-56
2022/04/03 06:42:14;;;;;;;5.35;2.45;;;2.70;99.90;;;;;;5021429;28;20113;-57
2022/04/03 06:44:40;;;;;;;4.70;2.60;;;2.70;99.90;;;;;;5022131;28;20056;-57
2022/04/03 06:47:06;;;;;;;7.20;2.78;;;2.70;99.90;;;;;;5022914;28;20033;-57
2022/04/03 06:49:32;;;;;;;5.22;2.40;;;2.70;99.90;;;;;;5014343;28;20034;-56
2022/04/03 06:51:58;;;;;;;4.85;2.50;;;3.30;99.90;;;;;;5022188;28;20045;-56
2022/04/03 06:54:24;;;;;;;6.05;2.50;;;2.80;99.90;;;;;;5017742;28;20038;-57
2022/04/03 06:56:54;;;;;;;6.30;2.90;;;2.90;99.90;;;;;;5016767;28;20044;-58
2022/04/03 06:59:20;;;;;;;5.43;2.38;;;2.90;99.90;;;;;;5013530;28;20034;-57
2022/04/03 07:01:46;;;;;;;5.38;2.80;;;3.00;99.90;;;;;;5011636;28;20065;-58
2022/04/03 07:04:11;;;;;;;6.22;2.38;;;3.10;99.90;;;;;;5016062;28;20081;-57
2022/04/03 07:06:37;;;;;;;4.20;2.53;;;3.10;99.90;;;;;;5012691;28;20060;-56
2022/04/03 07:09:03;;;;;;;3.75;2.30;;;3.20;99.90;;;;;;5012424;28;20132;-58
2022/04/03 07:11:28;;;;;;;4.05;2.28;;;3.30;99.90;;;;;;5011681;28;20052;-57
2022/04/03 07:13:54;;;;;;;5.68;2.40;;;3.50;99.90;;;;;;5014995;28;20743;-57
2022/04/03 07:16:19;;;;;;;5.47;2.33;;;3.60;99.90;;;;;;5012296;28;20041;-57
2022/04/03 07:18:45;;;;;;;4.38;2.30;;;3.70;99.90;;;;;;5013099;28;20049;-56
2022/04/03 07:21:10;;;;;;;4.85;2.10;;;3.80;99.90;;;;;;5028600;28;20485;-56
2022/04/03 07:23:36;;;;;;;6.43;2.83;;;3.80;99.90;;;;;;5013372;28;20045;-57
2022/04/03 07:26:02;;;;;;;7.05;2.10;;;3.90;99.90;;;;;;5030767;28;20034;-55
2022/04/03 07:28:27;;;;;;;5.78;2.10;;;4.00;99.90;;;;;;5025340;28;20041;-57
2022/04/03 07:30:53;;;;;;;5.18;2.08;;;4.10;99.90;;;;;;5025895;28;20037;-56
2022/04/03 07:33:20;;;;;;;4.38;1.70;;;4.20;99.90;;;;;;5015389;28;20037;-57
2022/04/03 07:35:47;;;;;;;5.00;2.08;;;4.30;99.90;;;;;;5014805;28;20041;-55
2022/04/03 07:38:14;;;;;;;5.72;1.92;;;4.50;99.90;;;;;;5025049;28;20041;-57
2022/04/03 07:40:39;;;;;;;3.47;1.63;;;4.60;99.90;;;;;;5029358;28;20124;-56
2022/04/03 07:43:06;;;;;;;4.10;1.80;;;4.70;99.90;;;;;;5030669;28;20480;-55
2022/04/03 07:45:32;;;;;;;2.42;1.60;;;4.80;99.90;;;;;;5013387;28;20049;-57
2022/04/03 07:47:58;;;;;;;7.50;2.22;;;4.90;99.90;;;;;;5030401;28;20080;-57
2022/04/03 07:50:25;;;;;;;5.65;1.85;;;5.00;99.90;;;;;;5031048;28;20129;-57
2022/04/03 07:52:51;;;;;;;4.32;1.70;;;5.10;99.90;;;;;;5013416;28;20060;-57
2022/04/03 07:55:18;;;;;;;4.35;1.60;;;5.20;99.90;;;;;;5030761;28;20041;-56
2022/04/03 07:57:43;;;;;;;4.88;1.60;;;5.40;99.90;;;;;;5030758;28;20044;-56
2022/04/03 08:00:11;;;;;;;3.72;1.40;;;5.50;99.90;;;;;;5031389;28;20034;-56
2022/04/03 08:02:40;;;;;;;3.53;1.60;;;5.60;99.90;;;;;;5030770;28;20048;-55
2022/04/03 08:05:07;;;;;;;4.40;1.58;;;5.70;99.90;;;;;;5030986;28;20489;-56
2022/04/03 08:07:44;;;;;;;4.18;1.30;;;5.70;99.90;;;;;;5030358;28;20124;-56
2022/04/03 08:10:18;;;;;;;3.50;1.50;;;5.70;99.90;;;;;;5030931;28;20037;-57
2022/04/03 08:12:46;;;;;;;5.18;1.20;;;5.60;99.90;;;;;;5030655;28;20049;-56
2022/04/03 08:15:12;;;;;;;6.13;1.67;;;5.60;99.90;;;;;;5030884;28;20048;-55
2022/04/03 08:17:38;;;;;;;5.75;1.60;;;5.70;99.90;;;;;;5030049;28;20041;-56
2022/04/03 08:20:12;;;;;;;4.22;1.35;;;5.90;99.90;;;;;;5027965;28;20512;-56
2022/04/03 08:22:39;;;;;;;3.03;1.20;;;6.00;99.90;;;;;;5025957;28;20045;-57
2022/04/03 08:25:09;;;;;;;4.97;1.60;;;6.20;99.90;;;;;;5030479;28;20576;-58
2022/04/03 08:27:51;;;;;;;4.43;1.38;;;6.20;99.90;;;;;;5029903;28;20047;-55
2022/04/03 08:30:23;;;;;;;2.27;1.07;;;6.40;99.90;;;;;;5030739;28;20048;-56
2022/04/03 08:32:49;;;;;;;4.68;1.40;;;6.50;99.90;;;;;;5030496;28;20053;-58
2022/04/03 08:35:16;;;;;;;3.83;1.30;;;6.60;99.90;;;;;;5030899;28;20076;-57
2022/04/03 08:37:42;;;;;;;5.90;1.60;;;6.80;99.90;;;;;;5030071;28;20525;-57
2022/04/03 08:40:09;;;;;;;2.92;1.10;;;6.80;99.90;;;;;;5030826;28;20034;-55
2022/04/03 08:42:36;;;;;;;2.28;1.23;;;6.70;99.90;;;;;;5030746;28;20045;-55
2022/04/03 08:45:03;;;;;;;5.85;1.35;;;6.60;99.90;;;;;;5025423;28;20038;-57
2022/04/03 08:47:30;;;;;;;4.28;1.80;;;6.60;99.90;;;;;;5029589;28;20132;-56
2022/04/03 08:49:59;;;;;;;4.45;2.40;;;6.60;99.90;;;;;;5032877;28;20052;-56
2022/04/03 08:52:26;;;;;;;6.15;1.52;;;6.50;99.90;;;;;;5034189;28;20099;-56
2022/04/03 08:54:52;;;;;;;3.38;1.83;;;6.60;99.90;;;;;;5034104;28;20072;-56
2022/04/03 08:57:17;;;;;;;5.93;1.50;;;6.70;99.90;;;;;;5032860;28;20821;-57
2022/04/03 08:59:43;;;;;;;4.85;1.35;;;6.70;99.90;;;;;;5021032;28;20037;-55
2022/04/03 09:02:12;;;;;;;3.40;1.20;;;6.70;99.90;;;;;;5026581;28;20047;-56
2022/04/03 09:04:38;;;;;;;3.38;1.30;;;6.70;99.90;;;;;;5030712;28;20512;-57
2022/04/03 09:07:04;;;;;;;3.53;1.77;;;6.70;99.90;;;;;;5027732;28;20037;-57
2022/04/03 09:09:29;;;;;;;4.82;1.20;;;6.80;99.90;;;;;;5029821;28;20044;-56
2022/04/03 09:12:15;;;;;;;3.70;1.00;;;6.90;99.90;;;;;;5026156;28;20069;-57
2022/04/03 09:14:55;;;;;;;2.28;1.20;;;6.90;99.90;;;;;;5028653;28;20380;-56
2022/04/03 09:17:38;;;;;;;3.55;1.27;;;6.80;99.90;;;;;;5030569;28;20041;-57
2022/04/03 09:20:09;;;;;;;3.13;1.27;;;6.80;99.90;;;;;;5029721;28;20044;-56
2022/04/03 09:22:36;;;;;;;5.20;1.55;;;6.70;99.90;;;;;;5019958;28;20391;-53
2022/04/03 09:25:06;;;;;;;1.80;1.15;;;6.70;99.90;;;;;;5031515;28;20029;-54
2022/04/03 09:27:34;;;;;;;5.07;1.20;;;6.80;99.90;;;;;;5031415;28;20448;-54
2022/04/03 09:30:07;;;;;;;4.22;1.50;;;7.00;99.90;;;;;;5008376;28;20087;-54
2022/04/03 09:32:34;;;;;;;2.10;1.05;;;7.10;99.90;;;;;;5020447;28;20043;-51
2022/04/03 09:35:00;;;;;;;2.10;1.10;;;7.10;99.90;;;;;;5020684;28;20520;-52
2022/04/03 09:37:26;;;;;;;5.70;1.33;;;7.00;99.90;;;;;;5024783;28;20037;-52
2022/04/03 09:39:53;;;;;;;1.77;1.20;;;7.00;99.90;;;;;;5011075;28;20490;-53
2022/04/03 09:42:19;;;;;;;5.55;1.20;;;6.90;99.90;;;;;;5023013;28;20044;-53
2022/04/03 09:44:46;;;;;;;2.67;1.20;;;6.80;99.90;;;;;;5015236;28;20520;-53
2022/04/03 09:47:26;;;;;;;5.47;1.50;;;6.80;99.90;;;;;;5022143;28;20120;-55
2022/04/03 09:49:56;;;;;;;5.53;1.35;;;6.80;99.90;;;;;;5016782;28;20038;-51
2022/04/03 09:52:43;;;;;;;3.03;1.00;;;7.00;99.90;;;;;;5021625;28;20040;-51
2022/04/03 09:55:20;;;;;;;2.47;1.25;;;7.20;99.90;;;;;;5017402;28;20042;-54
2022/04/03 09:58:05;;;;;;;3.67;2.13;;;7.30;99.90;;;;;;5018623;28;20046;-51
2022/04/03 10:00:41;;;;;;;4.72;1.42;;;7.20;99.90;;;;;;5001675;28;20121;-51
2022/04/03 10:03:10;;;;;;;3.45;1.30;;;7.10;99.90;;;;;;5017785;28;20283;-54
2022/04/03 10:05:36;;;;;;;2.90;1.20;;;6.90;99.90;;;;;;5020744;28;20087;-54
2022/04/03 10:08:05;;;;;;;3.78;1.20;;;6.80;99.90;;;;;;5014676;28;20486;-52
2022/04/03 10:10:33;;;;;;;1.88;1.00;;;6.60;99.90;;;;;;5021273;28;20479;-52
2022/04/03 10:12:59;;;;;;;3.50;1.30;;;6.50;99.90;;;;;;5020921;28;20041;-52
2022/04/03 10:15:27;;;;;;;5.00;1.27;;;6.60;99.90;;;;;;5016763;28;20092;-52
2022/04/03 10:17:53;;;;;;;2.25;1.00;;;6.90;99.90;;;;;;5017909;28;20481;-53
2022/04/03 10:20:18;;;;;;;3.15;1.17;;;7.20;99.90;;;;;;5002696;28;20124;-52
2022/04/03 10:25:18;;;;;;;2.20;1.00;;;7.40;99.90;;;;;;5077672;23;20046;-52
2022/04/03 10:27:46;;;;;;;2.88;0.93;;;7.70;98.20;;;;;;5030176;28;20124;-52
2022/04/03 10:30:16;;;;;;;4.50;0.90;;;7.90;97.80;;;;;;5036773;28;20037;-52
2022/04/03 10:32:56;;;;;;;0.70;0.70;;;7.90;97.40;;;;;;5023057;28;20052;-53
2022/04/03 10:35:22;;;;;;;1.08;0.90;;;8.10;96.00;;;;;;5007585;28;20034;-53
2022/04/03 10:37:59;;;;;;;2.75;1.02;;;8.30;96.30;;;;;;5008269;28;20076;-52
2022/04/03 10:40:30;;;;;;;1.02;0.80;;;8.50;95.30;;;;;;5005995;28;20037;-52
2022/04/03 10:43:03;;;;;;;1.63;0.80;;;8.60;94.10;;;;;;5006401;28;20317;-52
2022/04/03 10:45:36;;;;;;;1.70;0.63;;;8.40;93.90;;;;;;5004580;28;20061;-52
2022/04/03 10:48:23;;;;;;;2.50;0.70;;;8.20;92.20;;;;;;5023340;28;20045;-52
2022/04/03 10:50:58;;;;;;;3.38;0.70;;;8.10;91.60;;;;;;5008875;28;20498;-52
2022/04/03 10:53:26;;;;;;;2.35;0.80;;;8.20;91.00;;;;;;5016856;28;20510;-52
2022/04/03 10:55:56;;;;;;;4.88;1.00;;;8.50;91.50;;;;;;5008762;28;20048;-53
2022/04/03 10:58:22;;;;;;;1.70;0.75;;;8.60;91.00;;;;;;5008335;28;20041;-53
2022/04/03 11:00:49;;;;;;;2.30;0.77;;;8.70;91.00;;;;;;5009551;28;20046;-52
2022/04/03 11:03:15;;;;;;;1.95;0.60;;;8.50;90.90;;;;;;5007100;28;20037;-53
2022/04/03 11:05:46;;;;;;;1.85;0.70;;;8.40;90.60;;;;;;5006682;28;20038;-52
2022/04/03 11:08:11;;;;;;;0.50;0.40;;;8.30;90.40;;;;;;5003126;28;20042;-53
2022/04/03 11:10:45;;;;;;;5.30;0.90;;;8.30;86.00;;;;;;5009799;28;20068;-53
2022/04/03 11:13:12;;;;;;;2.05;0.70;;;8.30;87.60;;;;;;5006379;28;20038;-52
2022/04/03 11:15:56;;;;;;;1.70;0.80;;;8.30;89.50;;;;;;5015306;28;20049;-52
2022/04/03 11:18:26;;;;;;;2.08;1.20;;;8.30;86.10;;;;;;5014126;28;20041;-52
2022/04/03 11:21:08;;;;;;;0.50;0.30;;;8.30;77.20;;;;;;5003023;28;20037;-53
2022/04/03 11:23:53;;;;;;;1.85;0.73;;;8.30;70.60;;;;;;5014673;28;20050;-52
2022/04/03 11:26:19;;;;;;;1.90;0.88;;;8.30;74.90;;;;;;5015284;28;20041;-53
2022/04/03 11:28:46;;;;;;;5.68;1.13;;;8.40;82.10;;;;;;5018029;28;20125;-52
2022/04/03 11:31:12;;;;;;;5.32;1.20;;;8.40;88.80;;;;;;5007878;28;20482;-51
2022/04/03 11:33:38;;;;;;;2.97;1.00;;;8.40;89.50;;;;;;5008656;28;20034;-53
2022/04/03 11:36:07;;;;;;;2.55;1.05;;;8.30;87.30;;;;;;5006013;28;20461;-53
2022/04/03 11:38:34;;;;;;;3.58;1.17;;;7.80;86.30;;;;;;5007048;28;20037;-52
2022/04/03 11:41:03;;;;;;;2.13;1.92;;;8.00;86.40;;;;;;5008137;28;20042;-55
2022/04/03 11:43:29;;;;;;;3.10;0.90;;;7.90;85.60;;;;;;5008025;28;20109;-53
2022/04/03 11:45:57;;;;;;;3.83;1.05;;;7.90;84.90;;;;;;4993502;28;20053;-53
2022/04/03 11:48:31;;;;;;;1.55;0.88;;;7.80;84.30;;;;;;5014288;28;20536;-53
2022/04/03 11:51:17;;;;;;;1.73;0.77;;;7.80;84.30;;;;;;5011517;28;20513;-52
2022/04/03 11:53:44;;;;;;;3.70;1.25;;;7.70;84.50;;;;;;5006934;28;20038;-52
2022/04/03 11:56:11;;;;;;;0.80;0.80;;;7.70;85.50;;;;;;5008264;28;20037;-52
2022/04/03 11:58:39;;;;;;;1.52;0.90;;;7.70;86.50;;;;;;5014057;28;20339;-52
2022/04/03 12:01:04;;;;;;;3.28;0.98;;;7.70;87.10;;;;;;5007719;28;20045;-52
2022/04/03 12:03:30;;;;;;;5.00;1.05;;;7.70;87.20;;;;;;5007761;28;20602;-52
2022/04/03 12:06:16;;;;;;;1.85;0.90;;;7.70;86.90;;;;;;5008028;28;20038;-55
2022/04/03 12:08:46;;;;;;;1.65;0.73;;;7.70;86.80;;;;;;4989593;28;20056;-53
2022/04/03 12:11:29;;;;;;;2.58;0.98;;;7.70;86.60;;;;;;5004476;28;20033;-53
2022/04/03 12:14:00;;;;;;;2.72;0.75;;;7.70;86.80;;;;;;5007045;28;20246;-53
2022/04/03 12:16:28;;;;;;;2.90;0.70;;;7.60;86.10;;;;;;5007649;28;20116;-53
2022/04/03 12:18:55;;;;;;;2.10;1.10;;;7.60;83.20;;;;;;5007820;28;20065;-50
2022/04/03 12:21:22;;;;;;;0.82;0.82;;;7.70;82.70;;;;;;5019517;28;20485;-52
2022/04/03 12:24:07;;;;;;;2.78;0.93;;;7.60;82.90;;;;;;5020593;28;20037;-52
2022/04/03 12:26:34;;;;;;;0.73;0.73;;;7.60;83.80;;;;;;5008583;28;20111;-50
2022/04/03 12:29:01;;;;;;;0.70;0.70;;;7.50;84.00;;;;;;5016738;28;20033;-53
2022/04/03 12:31:31;;;;;;;4.88;2.22;;;7.50;84.10;;;;;;5018967;28;20038;-52
2022/04/03 12:34:07;;;;;;;4.10;1.08;;;7.50;83.80;;;;;;5015489;28;20445;-53
2022/04/03 12:36:43;;;;;;;1.52;0.80;;;7.50;83.80;;;;;;5009704;28;20053;-53
2022/04/03 12:39:27;;;;;;;1.48;1.23;;;7.60;84.10;;;;;;4995242;28;20120;-53
2022/04/03 12:41:53;;;;;;;2.13;1.25;;;7.70;83.50;;;;;;4998617;28;20112;-53
2022/04/03 12:44:19;;;;;;;5.68;1.45;;;7.70;83.80;;;;;;4996064;28;20498;-53
2022/04/03 12:46:48;;;;;;;4.32;1.10;;;7.80;85.70;;;;;;4994751;28;20345;-53
2022/04/03 12:49:20;;;;;;;1.85;1.08;;;7.90;86.60;;;;;;4992804;28;20394;-53
2022/04/03 12:51:46;;;;;;;3.35;1.10;;;7.90;85.80;;;;;;4993575;28;20042;-53
2022/04/03 12:54:12;;;;;;;3.17;1.27;;;7.90;85.70;;;;;;4991989;28;20054;-54
2022/04/03 12:59:26;;;;;;;1.25;0.88;;;7.80;89.70;;;;;;4998118;28;20056;-53
2022/04/03 13:01:55;;;;;;;2.22;1.40;;;7.50;91.50;;;;;;4993796;28;20034;-54
2022/04/03 13:04:31;;;;;;;2.65;1.20;;;7.30;92.80;;;;;;4995075;28;20038;-53